sensor_id;sensor_type;location;lat;lon;timestamp;P1;durP1;ratioP1;P2;durP2;ratioP2
14369;SDS011;7268;50.792;0.252;2022-09-02T00:01:22;6.05;;;3.42;;
14369;SDS011;7268;50.792;0.252;2022-09-02T00:03:50;11.32;;;3.90;;
14369;SDS011;7268;50.792;0.252;2022-09-02T00:06:18;9.90;;;4.32;;
14369;SDS011;7268;50.792;0.252;2022-09-02T00:08:45;17.13;;;4.30;;
14369;SDS011;7268;50.792;0.252;2022-09-02T00:11:14;7.22;;;4.00;;
14369;SDS011;7268;50.792;0.252;2022-09-02T00:13:42;12.05;;;3.65;;
14369;SDS011;7268;50.792;0.252;2022-09-02T00:16:10;9.95;;;4.35;;
14369;SDS011;7268;50.792;0.252;2022-09-02T00:18:38;10.73;;;3.28;;
14369;SDS011;7268;50.792;0.252;2022-09-02T00:21:11;9.85;;;3.65;;
14369;SDS011;7268;50.792;0.252;2022-09-02T00:23:39;13.90;;;3.90;;
14369;SDS011;7268;50.792;0.252;2022-09-02T00:26:07;10.60;;;3.88;;
14369;SDS011;7268;50.792;0.252;2022-09-02T00:28:34;9.45;;;4.07;;
14369;SDS011;7268;50.792;0.252;2022-09-02T00:31:02;9.43;;;4.38;;
14369;SDS011;7268;50.792;0.252;2022-09-02T00:33:29;9.50;;;3.92;;
14369;SDS011;7268;50.792;0.252;2022-09-02T00:35:58;8.05;;;3.58;;
14369;SDS011;7268;50.792;0.252;2022-09-02T00:38:26;11.80;;;3.92;;
14369;SDS011;7268;50.792;0.252;2022-09-02T00:40:54;8.48;;;4.13;;
14369;SDS011;7268;50.792;0.252;2022-09-02T00:43:23;11.82;;;4.40;;
14369;SDS011;7268;50.792;0.252;2022-09-02T00:45:51;14.93;;;4.07;;
14369;SDS011;7268;50.792;0.252;2022-09-02T00:48:20;7.45;;;4.25;;
14369;SDS011;7268;50.792;0.252;2022-09-02T00:50:47;10.07;;;4.65;;
14369;SDS011;7268;50.792;0.252;2022-09-02T00:53:16;10.77;;;4.68;;
14369;SDS011;7268;50.792;0.252;2022-09-02T00:55:45;14.40;;;3.90;;
14369;SDS011;7268;50.792;0.252;2022-09-02T00:58:20;10.55;;;3.75;;
14369;SDS011;7268;50.792;0.252;2022-09-02T01:00:48;7.15;;;4.00;;
14369;SDS011;7268;50.792;0.252;2022-09-02T01:03:18;9.30;;;4.30;;
14369;SDS011;7268;50.792;0.252;2022-09-02T01:05:47;9.05;;;4.00;;
14369;SDS011;7268;50.792;0.252;2022-09-02T01:08:17;8.85;;;4.90;;
14369;SDS011;7268;50.792;0.252;2022-09-02T01:10:45;11.60;;;4.43;;
14369;SDS011;7268;50.792;0.252;2022-09-02T01:13:14;8.70;;;4.13;;
14369;SDS011;7268;50.792;0.252;2022-09-02T01:15:43;6.28;;;4.30;;
14369;SDS011;7268;50.792;0.252;2022-09-02T01:18:16;11.73;;;4.15;;
14369;SDS011;7268;50.792;0.252;2022-09-02T01:20:44;7.55;;;4.13;;
14369;SDS011;7268;50.792;0.252;2022-09-02T01:23:12;9.13;;;4.88;;
14369;SDS011;7268;50.792;0.252;2022-09-02T01:25:42;12.77;;;3.92;;
14369;SDS011;7268;50.792;0.252;2022-09-02T01:28:11;9.25;;;3.70;;
14369;SDS011;7268;50.792;0.252;2022-09-02T01:30:39;12.30;;;4.40;;
14369;SDS011;7268;50.792;0.252;2022-09-02T01:33:08;13.63;;;4.60;;
14369;SDS011;7268;50.792;0.252;2022-09-02T01:35:36;8.85;;;4.18;;
14369;SDS011;7268;50.792;0.252;2022-09-02T01:38:04;8.57;;;4.32;;
14369;SDS011;7268;50.792;0.252;2022-09-02T01:40:32;8.27;;;4.53;;
14369;SDS011;7268;50.792;0.252;2022-09-02T01:43:09;9.30;;;4.82;;
14369;SDS011;7268;50.792;0.252;2022-09-02T01:45:38;9.15;;;4.07;;
14369;SDS011;7268;50.792;0.252;2022-09-02T01:48:06;9.40;;;4.50;;
14369;SDS011;7268;50.792;0.252;2022-09-02T01:50:35;9.18;;;4.28;;
14369;SDS011;7268;50.792;0.252;2022-09-02T01:55:33;8.85;;;4.80;;
14369;SDS011;7268;50.792;0.252;2022-09-02T01:58:01;14.80;;;4.47;;
14369;SDS011;7268;50.792;0.252;2022-09-02T02:00:29;7.88;;;4.25;;
14369;SDS011;7268;50.792;0.252;2022-09-02T02:02:56;14.10;;;4.65;;
14369;SDS011;7268;50.792;0.252;2022-09-02T02:05:24;11.63;;;4.07;;
14369;SDS011;7268;50.792;0.252;2022-09-02T02:07:51;10.90;;;4.45;;
14369;SDS011;7268;50.792;0.252;2022-09-02T02:10:19;6.85;;;4.30;;
14369;SDS011;7268;50.792;0.252;2022-09-02T02:12:47;9.93;;;4.63;;
14369;SDS011;7268;50.792;0.252;2022-09-02T02:15:15;11.35;;;4.70;;
14369;SDS011;7268;50.792;0.252;2022-09-02T02:17:43;11.20;;;4.72;;
14369;SDS011;7268;50.792;0.252;2022-09-02T02:20:14;11.52;;;5.38;;
14369;SDS011;7268;50.792;0.252;2022-09-02T02:22:42;11.05;;;4.18;;
14369;SDS011;7268;50.792;0.252;2022-09-02T02:25:10;8.48;;;4.03;;
14369;SDS011;7268;50.792;0.252;2022-09-02T02:27:39;12.63;;;4.53;;
14369;SDS011;7268;50.792;0.252;2022-09-02T02:30:09;11.45;;;4.57;;
14369;SDS011;7268;50.792;0.252;2022-09-02T02:32:36;9.77;;;4.30;;
14369;SDS011;7268;50.792;0.252;2022-09-02T02:35:04;10.30;;;4.45;;
14369;SDS011;7268;50.792;0.252;2022-09-02T02:37:32;10.15;;;5.35;;
14369;SDS011;7268;50.792;0.252;2022-09-02T02:39:59;8.25;;;4.90;;
14369;SDS011;7268;50.792;0.252;2022-09-02T02:42:26;10.13;;;4.43;;
14369;SDS011;7268;50.792;0.252;2022-09-02T02:44:54;10.25;;;4.30;;
14369;SDS011;7268;50.792;0.252;2022-09-02T02:47:21;7.38;;;4.85;;
14369;SDS011;7268;50.792;0.252;2022-09-02T02:49:49;10.80;;;4.80;;
14369;SDS011;7268;50.792;0.252;2022-09-02T02:52:16;9.02;;;4.88;;
14369;SDS011;7268;50.792;0.252;2022-09-02T02:54:43;6.93;;;4.45;;
14369;SDS011;7268;50.792;0.252;2022-09-02T02:57:11;8.05;;;5.05;;
14369;SDS011;7268;50.792;0.252;2022-09-02T02:59:38;12.18;;;5.38;;
14369;SDS011;7268;50.792;0.252;2022-09-02T03:02:06;8.57;;;5.20;;
14369;SDS011;7268;50.792;0.252;2022-09-02T03:04:33;13.73;;;5.25;;
14369;SDS011;7268;50.792;0.252;2022-09-02T03:07:01;9.10;;;5.43;;
14369;SDS011;7268;50.792;0.252;2022-09-02T03:09:28;11.55;;;4.35;;
14369;SDS011;7268;50.792;0.252;2022-09-02T03:11:55;12.75;;;5.25;;
14369;SDS011;7268;50.792;0.252;2022-09-02T03:14:23;14.35;;;5.45;;
14369;SDS011;7268;50.792;0.252;2022-09-02T03:16:51;11.52;;;5.35;;
14369;SDS011;7268;50.792;0.252;2022-09-02T03:19:18;10.93;;;4.78;;
14369;SDS011;7268;50.792;0.252;2022-09-02T03:21:46;16.90;;;5.47;;
14369;SDS011;7268;50.792;0.252;2022-09-02T03:24:13;13.07;;;5.22;;
14369;SDS011;7268;50.792;0.252;2022-09-02T03:26:41;9.85;;;4.93;;
14369;SDS011;7268;50.792;0.252;2022-09-02T03:29:09;11.77;;;5.50;;
14369;SDS011;7268;50.792;0.252;2022-09-02T03:31:36;10.68;;;5.20;;
14369;SDS011;7268;50.792;0.252;2022-09-02T03:34:04;12.52;;;5.57;;
14369;SDS011;7268;50.792;0.252;2022-09-02T03:36:36;14.13;;;6.00;;
14369;SDS011;7268;50.792;0.252;2022-09-02T03:39:05;14.50;;;6.53;;
14369;SDS011;7268;50.792;0.252;2022-09-02T03:41:35;9.50;;;5.75;;
14369;SDS011;7268;50.792;0.252;2022-09-02T03:44:03;7.75;;;5.65;;
14369;SDS011;7268;50.792;0.252;2022-09-02T03:46:31;9.00;;;5.40;;
14369;SDS011;7268;50.792;0.252;2022-09-02T03:48:58;9.68;;;5.70;;
14369;SDS011;7268;50.792;0.252;2022-09-02T03:51:26;12.40;;;5.50;;
14369;SDS011;7268;50.792;0.252;2022-09-02T03:53:53;11.68;;;5.32;;
14369;SDS011;7268;50.792;0.252;2022-09-02T03:56:21;11.07;;;4.70;;
14369;SDS011;7268;50.792;0.252;2022-09-02T03:58:50;13.18;;;4.85;;
14369;SDS011;7268;50.792;0.252;2022-09-02T04:01:19;9.30;;;4.47;;
14369;SDS011;7268;50.792;0.252;2022-09-02T04:03:47;9.07;;;4.55;;
14369;SDS011;7268;50.792;0.252;2022-09-02T04:06:15;13.02;;;4.60;;
14369;SDS011;7268;50.792;0.252;2022-09-02T04:08:43;7.80;;;4.38;;
14369;SDS011;7268;50.792;0.252;2022-09-02T04:11:11;11.32;;;4.70;;
14369;SDS011;7268;50.792;0.252;2022-09-02T04:13:40;8.70;;;4.30;;
14369;SDS011;7268;50.792;0.252;2022-09-02T04:16:11;20.75;;;4.53;;
14369;SDS011;7268;50.792;0.252;2022-09-02T04:18:39;8.07;;;4.07;;
14369;SDS011;7268;50.792;0.252;2022-09-02T04:21:06;10.95;;;4.57;;
14369;SDS011;7268;50.792;0.252;2022-09-02T04:23:34;9.93;;;4.10;;
14369;SDS011;7268;50.792;0.252;2022-09-02T04:26:03;9.20;;;4.15;;
14369;SDS011;7268;50.792;0.252;2022-09-02T04:28:31;11.15;;;3.78;;
14369;SDS011;7268;50.792;0.252;2022-09-02T04:30:58;8.10;;;4.10;;
14369;SDS011;7268;50.792;0.252;2022-09-02T04:33:25;9.68;;;3.78;;
14369;SDS011;7268;50.792;0.252;2022-09-02T04:35:53;14.00;;;4.03;;
14369;SDS011;7268;50.792;0.252;2022-09-02T04:38:20;11.07;;;4.15;;
14369;SDS011;7268;50.792;0.252;2022-09-02T04:40:48;6.53;;;3.75;;
14369;SDS011;7268;50.792;0.252;2022-09-02T04:43:15;7.78;;;3.50;;
14369;SDS011;7268;50.792;0.252;2022-09-02T04:45:44;11.27;;;4.18;;
14369;SDS011;7268;50.792;0.252;2022-09-02T04:48:11;7.88;;;3.75;;
14369;SDS011;7268;50.792;0.252;2022-09-02T04:50:39;9.57;;;4.00;;
14369;SDS011;7268;50.792;0.252;2022-09-02T04:53:07;12.30;;;4.53;;
14369;SDS011;7268;50.792;0.252;2022-09-02T04:55:36;10.30;;;3.92;;
14369;SDS011;7268;50.792;0.252;2022-09-02T04:58:04;8.68;;;4.13;;
14369;SDS011;7268;50.792;0.252;2022-09-02T05:00:31;11.07;;;3.80;;
14369;SDS011;7268;50.792;0.252;2022-09-02T05:02:58;9.65;;;4.28;;
14369;SDS011;7268;50.792;0.252;2022-09-02T05:05:26;6.70;;;4.07;;
14369;SDS011;7268;50.792;0.252;2022-09-02T05:07:53;12.55;;;3.75;;
14369;SDS011;7268;50.792;0.252;2022-09-02T05:10:21;8.00;;;4.15;;
14369;SDS011;7268;50.792;0.252;2022-09-02T05:12:49;7.10;;;3.58;;
14369;SDS011;7268;50.792;0.252;2022-09-02T05:15:17;8.60;;;3.70;;
14369;SDS011;7268;50.792;0.252;2022-09-02T05:17:44;7.22;;;3.40;;
14369;SDS011;7268;50.792;0.252;2022-09-02T05:20:12;7.85;;;4.05;;
14369;SDS011;7268;50.792;0.252;2022-09-02T05:22:39;5.43;;;3.10;;
14369;SDS011;7268;50.792;0.252;2022-09-02T05:25:07;3.90;;;3.13;;
14369;SDS011;7268;50.792;0.252;2022-09-02T05:27:35;8.13;;;3.28;;
14369;SDS011;7268;50.792;0.252;2022-09-02T05:30:02;6.35;;;3.38;;
14369;SDS011;7268;50.792;0.252;2022-09-02T05:32:30;9.35;;;3.03;;
14369;SDS011;7268;50.792;0.252;2022-09-02T05:35:03;7.47;;;3.97;;
14369;SDS011;7268;50.792;0.252;2022-09-02T05:37:30;5.10;;;3.15;;
14369;SDS011;7268;50.792;0.252;2022-09-02T05:39:57;12.27;;;3.25;;
14369;SDS011;7268;50.792;0.252;2022-09-02T05:42:26;8.18;;;3.20;;
14369;SDS011;7268;50.792;0.252;2022-09-02T05:44:55;8.18;;;3.30;;
14369;SDS011;7268;50.792;0.252;2022-09-02T05:47:22;6.95;;;3.22;;
14369;SDS011;7268;50.792;0.252;2022-09-02T05:49:50;7.55;;;3.72;;
14369;SDS011;7268;50.792;0.252;2022-09-02T05:52:18;7.93;;;3.40;;
14369;SDS011;7268;50.792;0.252;2022-09-02T05:54:46;11.25;;;3.70;;
14369;SDS011;7268;50.792;0.252;2022-09-02T05:57:15;13.80;;;3.35;;
14369;SDS011;7268;50.792;0.252;2022-09-02T05:59:42;10.75;;;3.70;;
14369;SDS011;7268;50.792;0.252;2022-09-02T06:02:10;8.32;;;3.42;;
14369;SDS011;7268;50.792;0.252;2022-09-02T06:04:39;8.30;;;3.40;;
14369;SDS011;7268;50.792;0.252;2022-09-02T06:07:06;7.65;;;3.13;;
14369;SDS011;7268;50.792;0.252;2022-09-02T06:09:36;6.78;;;3.17;;
14369;SDS011;7268;50.792;0.252;2022-09-02T06:12:04;7.43;;;3.42;;
14369;SDS011;7268;50.792;0.252;2022-09-02T06:14:31;9.77;;;3.50;;
14369;SDS011;7268;50.792;0.252;2022-09-02T06:16:58;5.35;;;3.05;;
14369;SDS011;7268;50.792;0.252;2022-09-02T06:19:26;8.85;;;2.97;;
14369;SDS011;7268;50.792;0.252;2022-09-02T06:21:55;10.20;;;2.60;;
14369;SDS011;7268;50.792;0.252;2022-09-02T06:24:23;8.30;;;3.00;;
14369;SDS011;7268;50.792;0.252;2022-09-02T06:26:51;11.90;;;3.05;;
14369;SDS011;7268;50.792;0.252;2022-09-02T06:29:21;7.22;;;2.30;;
14369;SDS011;7268;50.792;0.252;2022-09-02T06:31:49;4.22;;;2.47;;
14369;SDS011;7268;50.792;0.252;2022-09-02T06:34:18;6.43;;;2.20;;
14369;SDS011;7268;50.792;0.252;2022-09-02T06:36:46;8.70;;;1.70;;
14369;SDS011;7268;50.792;0.252;2022-09-02T06:39:16;9.48;;;1.83;;
14369;SDS011;7268;50.792;0.252;2022-09-02T06:41:43;5.90;;;2.08;;
14369;SDS011;7268;50.792;0.252;2022-09-02T06:44:14;5.25;;;1.80;;
14369;SDS011;7268;50.792;0.252;2022-09-02T06:46:43;6.07;;;1.60;;
14369;SDS011;7268;50.792;0.252;2022-09-02T06:49:13;6.75;;;1.55;;
14369;SDS011;7268;50.792;0.252;2022-09-02T06:51:42;11.45;;;2.53;;
14369;SDS011;7268;50.792;0.252;2022-09-02T06:54:13;12.98;;;1.70;;
14369;SDS011;7268;50.792;0.252;2022-09-02T06:56:41;3.90;;;1.67;;
14369;SDS011;7268;50.792;0.252;2022-09-02T06:59:14;8.25;;;2.42;;
14369;SDS011;7268;50.792;0.252;2022-09-02T07:01:42;8.82;;;1.63;;
14369;SDS011;7268;50.792;0.252;2022-09-02T07:04:10;7.38;;;1.75;;
14369;SDS011;7268;50.792;0.252;2022-09-02T07:06:56;11.20;;;2.22;;
14369;SDS011;7268;50.792;0.252;2022-09-02T07:09:24;8.88;;;2.10;;
14369;SDS011;7268;50.792;0.252;2022-09-02T07:11:59;8.73;;;2.45;;
14369;SDS011;7268;50.792;0.252;2022-09-02T07:14:30;10.68;;;2.40;;
14369;SDS011;7268;50.792;0.252;2022-09-02T07:16:58;8.73;;;1.77;;
14369;SDS011;7268;50.792;0.252;2022-09-02T07:19:25;9.10;;;1.67;;
14369;SDS011;7268;50.792;0.252;2022-09-02T07:21:53;9.15;;;1.90;;
14369;SDS011;7268;50.792;0.252;2022-09-02T07:24:21;8.60;;;1.80;;
14369;SDS011;7268;50.792;0.252;2022-09-02T07:26:48;13.45;;;2.10;;
14369;SDS011;7268;50.792;0.252;2022-09-02T07:29:21;4.10;;;2.15;;
14369;SDS011;7268;50.792;0.252;2022-09-02T07:31:48;7.25;;;1.55;;
14369;SDS011;7268;50.792;0.252;2022-09-02T07:34:16;4.78;;;1.50;;
14369;SDS011;7268;50.792;0.252;2022-09-02T07:36:44;5.90;;;1.60;;
14369;SDS011;7268;50.792;0.252;2022-09-02T07:39:12;4.65;;;1.92;;
14369;SDS011;7268;50.792;0.252;2022-09-02T07:41:40;10.40;;;1.85;;
14369;SDS011;7268;50.792;0.252;2022-09-02T07:44:08;9.90;;;1.52;;
14369;SDS011;7268;50.792;0.252;2022-09-02T07:46:35;5.35;;;1.38;;
14369;SDS011;7268;50.792;0.252;2022-09-02T07:49:04;7.00;;;1.70;;
14369;SDS011;7268;50.792;0.252;2022-09-02T07:51:36;3.83;;;1.20;;
14369;SDS011;7268;50.792;0.252;2022-09-02T07:54:04;7.18;;;1.95;;
14369;SDS011;7268;50.792;0.252;2022-09-02T07:56:31;9.73;;;1.73;;
14369;SDS011;7268;50.792;0.252;2022-09-02T07:58:58;6.90;;;1.80;;
14369;SDS011;7268;50.792;0.252;2022-09-02T08:01:26;8.40;;;1.83;;
14369;SDS011;7268;50.792;0.252;2022-09-02T08:03:53;8.88;;;1.90;;
14369;SDS011;7268;50.792;0.252;2022-09-02T08:06:21;8.07;;;2.03;;
14369;SDS011;7268;50.792;0.252;2022-09-02T08:08:59;8.80;;;2.00;;
14369;SDS011;7268;50.792;0.252;2022-09-02T08:11:27;11.35;;;1.77;;
14369;SDS011;7268;50.792;0.252;2022-09-02T08:13:54;5.93;;;1.90;;
14369;SDS011;7268;50.792;0.252;2022-09-02T08:16:22;8.50;;;2.03;;
14369;SDS011;7268;50.792;0.252;2022-09-02T08:18:50;13.07;;;1.95;;
14369;SDS011;7268;50.792;0.252;2022-09-02T08:21:17;10.93;;;2.00;;
14369;SDS011;7268;50.792;0.252;2022-09-02T08:23:44;7.40;;;1.70;;
14369;SDS011;7268;50.792;0.252;2022-09-02T08:26:14;7.00;;;1.70;;
14369;SDS011;7268;50.792;0.252;2022-09-02T08:28:42;5.50;;;1.50;;
14369;SDS011;7268;50.792;0.252;2022-09-02T08:31:09;9.57;;;1.75;;
14369;SDS011;7268;50.792;0.252;2022-09-02T08:33:37;5.03;;;1.60;;
14369;SDS011;7268;50.792;0.252;2022-09-02T08:36:05;4.50;;;1.40;;
14369;SDS011;7268;50.792;0.252;2022-09-02T08:38:34;14.05;;;1.38;;
14369;SDS011;7268;50.792;0.252;2022-09-02T08:41:09;11.35;;;1.70;;
14369;SDS011;7268;50.792;0.252;2022-09-02T08:43:40;7.93;;;1.40;;
14369;SDS011;7268;50.792;0.252;2022-09-02T08:46:10;5.85;;;1.60;;
14369;SDS011;7268;50.792;0.252;2022-09-02T08:48:44;5.13;;;1.90;;
14369;SDS011;7268;50.792;0.252;2022-09-02T08:51:15;8.15;;;1.58;;
14369;SDS011;7268;50.792;0.252;2022-09-02T08:53:47;10.77;;;1.85;;
14369;SDS011;7268;50.792;0.252;2022-09-02T08:56:18;6.55;;;2.15;;
14369;SDS011;7268;50.792;0.252;2022-09-02T08:58:47;13.23;;;1.83;;
14369;SDS011;7268;50.792;0.252;2022-09-02T09:09:04;6.43;;;1.73;;
14369;SDS011;7268;50.792;0.252;2022-09-02T09:11:39;8.38;;;1.65;;
14369;SDS011;7268;50.792;0.252;2022-09-02T09:14:10;10.45;;;1.73;;
14369;SDS011;7268;50.792;0.252;2022-09-02T09:19:13;10.65;;;1.83;;
14369;SDS011;7268;50.792;0.252;2022-09-02T09:21:42;11.38;;;2.50;;
14369;SDS011;7268;50.792;0.252;2022-09-02T09:24:29;9.65;;;1.85;;
14369;SDS011;7268;50.792;0.252;2022-09-02T09:27:00;16.17;;;2.00;;
14369;SDS011;7268;50.792;0.252;2022-09-02T09:29:32;10.13;;;2.20;;
14369;SDS011;7268;50.792;0.252;2022-09-02T09:32:01;13.18;;;2.28;;
14369;SDS011;7268;50.792;0.252;2022-09-02T09:37:51;7.63;;;1.95;;
14369;SDS011;7268;50.792;0.252;2022-09-02T09:40:35;5.30;;;1.70;;
14369;SDS011;7268;50.792;0.252;2022-09-02T09:45:46;4.07;;;1.90;;
14369;SDS011;7268;50.792;0.252;2022-09-02T09:48:16;8.88;;;2.00;;
14369;SDS011;7268;50.792;0.252;2022-09-02T09:50:45;10.38;;;2.45;;
14369;SDS011;7268;50.792;0.252;2022-09-02T09:53:14;8.38;;;2.20;;
14369;SDS011;7268;50.792;0.252;2022-09-02T09:55:54;10.23;;;2.45;;
14369;SDS011;7268;50.792;0.252;2022-09-02T09:58:44;5.93;;;1.60;;
14369;SDS011;7268;50.792;0.252;2022-09-02T10:03:49;6.95;;;2.10;;
14369;SDS011;7268;50.792;0.252;2022-09-02T10:06:22;11.65;;;2.65;;
14369;SDS011;7268;50.792;0.252;2022-09-02T10:08:54;16.17;;;1.95;;
14369;SDS011;7268;50.792;0.252;2022-09-02T10:11:26;8.10;;;2.38;;
14369;SDS011;7268;50.792;0.252;2022-09-02T10:14:00;10.15;;;2.20;;
14369;SDS011;7268;50.792;0.252;2022-09-02T10:18:59;9.95;;;1.77;;
14369;SDS011;7268;50.792;0.252;2022-09-02T10:26:48;6.03;;;2.30;;
14369;SDS011;7268;50.792;0.252;2022-09-02T10:31:49;5.82;;;2.22;;
14369;SDS011;7268;50.792;0.252;2022-09-02T10:42:07;9.40;;;2.90;;
14369;SDS011;7268;50.792;0.252;2022-09-02T10:44:45;10.10;;;2.63;;
14369;SDS011;7268;50.792;0.252;2022-09-02T10:47:19;11.70;;;2.70;;
14369;SDS011;7268;50.792;0.252;2022-09-02T10:50:15;8.82;;;2.95;;
14369;SDS011;7268;50.792;0.252;2022-09-02T10:55:36;13.10;;;3.40;;
14369;SDS011;7268;50.792;0.252;2022-09-02T10:58:21;11.23;;;3.30;;
14369;SDS011;7268;50.792;0.252;2022-09-02T11:05:47;8.90;;;3.05;;
14369;SDS011;7268;50.792;0.252;2022-09-02T11:10:55;14.93;;;4.85;;
14369;SDS011;7268;50.792;0.252;2022-09-02T11:13:34;10.60;;;3.38;;
14369;SDS011;7268;50.792;0.252;2022-09-02T11:16:09;6.22;;;3.10;;
14369;SDS011;7268;50.792;0.252;2022-09-02T11:18:43;13.60;;;4.50;;
14369;SDS011;7268;50.792;0.252;2022-09-02T11:21:20;8.70;;;4.13;;
14369;SDS011;7268;50.792;0.252;2022-09-02T11:24:11;8.57;;;4.18;;
14369;SDS011;7268;50.792;0.252;2022-09-02T11:26:48;16.75;;;4.53;;
14369;SDS011;7268;50.792;0.252;2022-09-02T11:29:19;10.65;;;4.75;;
14369;SDS011;7268;50.792;0.252;2022-09-02T11:31:50;9.02;;;3.95;;
14369;SDS011;7268;50.792;0.252;2022-09-02T11:37:23;8.45;;;3.42;;
14369;SDS011;7268;50.792;0.252;2022-09-02T11:39:49;11.50;;;3.28;;
14369;SDS011;7268;50.792;0.252;2022-09-02T11:42:44;12.43;;;3.67;;
14369;SDS011;7268;50.792;0.252;2022-09-02T11:48:18;4.32;;;2.90;;
14369;SDS011;7268;50.792;0.252;2022-09-02T11:53:23;11.07;;;3.88;;
14369;SDS011;7268;50.792;0.252;2022-09-02T11:58:42;13.88;;;4.30;;
14369;SDS011;7268;50.792;0.252;2022-09-02T12:01:29;16.70;;;4.18;;
14369;SDS011;7268;50.792;0.252;2022-09-02T12:09:47;11.40;;;3.53;;
14369;SDS011;7268;50.792;0.252;2022-09-02T12:20:04;7.97;;;2.88;;
14369;SDS011;7268;50.792;0.252;2022-09-02T12:22:34;4.72;;;2.60;;
14369;SDS011;7268;50.792;0.252;2022-09-02T12:25:51;9.93;;;3.60;;
14369;SDS011;7268;50.792;0.252;2022-09-02T12:33:42;6.97;;;3.65;;
14369;SDS011;7268;50.792;0.252;2022-09-02T12:55:14;5.80;;;3.30;;
14369;SDS011;7268;50.792;0.252;2022-09-02T12:57:46;5.93;;;3.30;;
14369;SDS011;7268;50.792;0.252;2022-09-02T13:00:23;8.57;;;2.88;;
14369;SDS011;7268;50.792;0.252;2022-09-02T13:08:40;12.38;;;3.72;;
14369;SDS011;7268;50.792;0.252;2022-09-02T13:32:24;7.93;;;4.47;;
14369;SDS011;7268;50.792;0.252;2022-09-02T13:34:53;11.50;;;4.88;;
14369;SDS011;7268;50.792;0.252;2022-09-02T13:37:28;15.52;;;5.13;;
14369;SDS011;7268;50.792;0.252;2022-09-02T13:39:56;15.05;;;4.85;;
14369;SDS011;7268;50.792;0.252;2022-09-02T13:42:24;9.98;;;4.40;;
14369;SDS011;7268;50.792;0.252;2022-09-02T13:45:17;8.98;;;4.97;;
14369;SDS011;7268;50.792;0.252;2022-09-02T13:47:46;11.20;;;4.95;;
14369;SDS011;7268;50.792;0.252;2022-09-02T13:50:15;13.25;;;6.13;;
14369;SDS011;7268;50.792;0.252;2022-09-02T13:52:44;17.02;;;5.70;;
14369;SDS011;7268;50.792;0.252;2022-09-02T13:55:33;9.38;;;5.88;;
14369;SDS011;7268;50.792;0.252;2022-09-02T13:58:02;12.48;;;6.18;;
14369;SDS011;7268;50.792;0.252;2022-09-02T14:03:11;16.50;;;7.20;;
14369;SDS011;7268;50.792;0.252;2022-09-02T14:05:40;19.33;;;7.47;;
14369;SDS011;7268;50.792;0.252;2022-09-02T14:08:13;12.40;;;7.88;;
14369;SDS011;7268;50.792;0.252;2022-09-02T14:10:41;15.52;;;8.52;;
14369;SDS011;7268;50.792;0.252;2022-09-02T14:13:09;15.00;;;7.35;;
14369;SDS011;7268;50.792;0.252;2022-09-02T14:15:37;15.45;;;6.80;;
14369;SDS011;7268;50.792;0.252;2022-09-02T14:18:05;18.42;;;8.00;;
14369;SDS011;7268;50.792;0.252;2022-09-02T14:20:33;16.27;;;7.07;;
14369;SDS011;7268;50.792;0.252;2022-09-02T14:23:01;14.38;;;7.53;;
14369;SDS011;7268;50.792;0.252;2022-09-02T14:25:31;14.48;;;7.97;;
14369;SDS011;7268;50.792;0.252;2022-09-02T14:28:00;18.73;;;7.93;;
14369;SDS011;7268;50.792;0.252;2022-09-02T14:30:37;16.25;;;7.65;;
14369;SDS011;7268;50.792;0.252;2022-09-02T14:38:21;17.38;;;8.25;;
14369;SDS011;7268;50.792;0.252;2022-09-02T14:40:49;15.52;;;8.57;;
14369;SDS011;7268;50.792;0.252;2022-09-02T14:43:24;19.63;;;8.02;;
14369;SDS011;7268;50.792;0.252;2022-09-02T14:46:02;15.95;;;8.18;;
14369;SDS011;7268;50.792;0.252;2022-09-02T14:48:29;18.98;;;9.15;;
14369;SDS011;7268;50.792;0.252;2022-09-02T14:50:59;17.38;;;8.95;;
14369;SDS011;7268;50.792;0.252;2022-09-02T14:53:29;14.63;;;8.73;;
14369;SDS011;7268;50.792;0.252;2022-09-02T14:55:57;17.85;;;7.90;;
14369;SDS011;7268;50.792;0.252;2022-09-02T14:58:26;17.60;;;8.50;;
14369;SDS011;7268;50.792;0.252;2022-09-02T15:00:54;13.63;;;8.95;;
14369;SDS011;7268;50.792;0.252;2022-09-02T15:03:22;14.32;;;7.78;;
14369;SDS011;7268;50.792;0.252;2022-09-02T15:05:50;15.52;;;7.70;;
14369;SDS011;7268;50.792;0.252;2022-09-02T15:08:19;16.30;;;8.63;;
14369;SDS011;7268;50.792;0.252;2022-09-02T15:10:47;16.20;;;9.57;;
14369;SDS011;7268;50.792;0.252;2022-09-02T15:13:22;14.60;;;9.38;;
14369;SDS011;7268;50.792;0.252;2022-09-02T15:15:51;17.92;;;10.43;;
14369;SDS011;7268;50.792;0.252;2022-09-02T15:18:21;16.67;;;10.57;;
14369;SDS011;7268;50.792;0.252;2022-09-02T15:20:48;16.17;;;10.40;;
14369;SDS011;7268;50.792;0.252;2022-09-02T15:23:15;25.85;;;11.45;;
14369;SDS011;7268;50.792;0.252;2022-09-02T15:25:43;23.98;;;10.50;;
14369;SDS011;7268;50.792;0.252;2022-09-02T15:28:10;15.23;;;10.13;;
14369;SDS011;7268;50.792;0.252;2022-09-02T15:30:38;19.48;;;9.27;;
14369;SDS011;7268;50.792;0.252;2022-09-02T15:33:07;16.88;;;9.52;;
14369;SDS011;7268;50.792;0.252;2022-09-02T15:35:42;11.02;;;8.20;;
14369;SDS011;7268;50.792;0.252;2022-09-02T15:38:11;18.88;;;9.00;;
14369;SDS011;7268;50.792;0.252;2022-09-02T15:40:39;18.10;;;10.27;;
14369;SDS011;7268;50.792;0.252;2022-09-02T15:43:06;22.73;;;11.43;;
14369;SDS011;7268;50.792;0.252;2022-09-02T15:45:33;20.65;;;12.48;;
14369;SDS011;7268;50.792;0.252;2022-09-02T15:48:03;21.88;;;11.77;;
14369;SDS011;7268;50.792;0.252;2022-09-02T15:50:32;18.13;;;10.68;;
14369;SDS011;7268;50.792;0.252;2022-09-02T15:52:59;24.42;;;12.07;;
14369;SDS011;7268;50.792;0.252;2022-09-02T15:55:28;22.23;;;10.95;;
14369;SDS011;7268;50.792;0.252;2022-09-02T15:57:57;23.23;;;13.32;;
14369;SDS011;7268;50.792;0.252;2022-09-02T16:00:25;24.65;;;13.65;;
14369;SDS011;7268;50.792;0.252;2022-09-02T16:02:54;27.52;;;15.65;;
14369;SDS011;7268;50.792;0.252;2022-09-02T16:05:22;30.98;;;16.55;;
14369;SDS011;7268;50.792;0.252;2022-09-02T16:07:50;23.40;;;14.48;;
14369;SDS011;7268;50.792;0.252;2022-09-02T16:10:20;30.65;;;14.75;;
14369;SDS011;7268;50.792;0.252;2022-09-02T16:12:47;25.73;;;16.08;;
14369;SDS011;7268;50.792;0.252;2022-09-02T16:15:14;20.05;;;13.35;;
14369;SDS011;7268;50.792;0.252;2022-09-02T16:17:42;28.13;;;15.70;;
14369;SDS011;7268;50.792;0.252;2022-09-02T16:20:09;23.77;;;16.48;;
14369;SDS011;7268;50.792;0.252;2022-09-02T16:22:37;31.52;;;17.73;;
14369;SDS011;7268;50.792;0.252;2022-09-02T16:25:04;26.83;;;15.45;;
14369;SDS011;7268;50.792;0.252;2022-09-02T16:27:32;23.80;;;14.45;;
14369;SDS011;7268;50.792;0.252;2022-09-02T16:30:18;23.77;;;14.98;;
14369;SDS011;7268;50.792;0.252;2022-09-02T16:32:45;29.10;;;14.70;;
14369;SDS011;7268;50.792;0.252;2022-09-02T16:35:15;29.30;;;16.13;;
14369;SDS011;7268;50.792;0.252;2022-09-02T16:37:43;24.70;;;15.52;;
14369;SDS011;7268;50.792;0.252;2022-09-02T16:40:10;25.38;;;15.68;;
14369;SDS011;7268;50.792;0.252;2022-09-02T16:42:46;25.48;;;14.27;;
14369;SDS011;7268;50.792;0.252;2022-09-02T16:45:13;24.70;;;15.38;;
14369;SDS011;7268;50.792;0.252;2022-09-02T16:47:41;24.02;;;14.73;;
14369;SDS011;7268;50.792;0.252;2022-09-02T16:50:08;25.63;;;14.48;;
14369;SDS011;7268;50.792;0.252;2022-09-02T16:52:37;24.55;;;13.05;;
14369;SDS011;7268;50.792;0.252;2022-09-02T16:55:06;24.00;;;14.77;;
14369;SDS011;7268;50.792;0.252;2022-09-02T16:57:33;23.80;;;14.20;;
14369;SDS011;7268;50.792;0.252;2022-09-02T17:00:00;26.00;;;13.32;;
14369;SDS011;7268;50.792;0.252;2022-09-02T17:02:28;23.77;;;13.60;;
14369;SDS011;7268;50.792;0.252;2022-09-02T17:04:55;29.50;;;13.85;;
14369;SDS011;7268;50.792;0.252;2022-09-02T17:07:22;26.00;;;14.65;;
14369;SDS011;7268;50.792;0.252;2022-09-02T17:09:50;24.63;;;14.13;;
14369;SDS011;7268;50.792;0.252;2022-09-02T17:12:17;26.73;;;13.70;;
14369;SDS011;7268;50.792;0.252;2022-09-02T17:14:45;25.48;;;13.48;;
14369;SDS011;7268;50.792;0.252;2022-09-02T17:17:12;31.27;;;13.93;;
14369;SDS011;7268;50.792;0.252;2022-09-02T17:19:42;25.00;;;14.38;;
14369;SDS011;7268;50.792;0.252;2022-09-02T17:22:09;25.30;;;13.80;;